createdAt,value
2023-05-16T00:01:50.066Z,101358.22
2023-05-16T00:06:52.639Z,101364.16
2023-05-16T00:11:55.160Z,101380.97
2023-05-16T00:17:01.490Z,101376.84
2023-05-16T00:22:04.640Z,101374.66
2023-05-16T00:27:07.180Z,101364.41
2023-05-16T00:32:09.870Z,101365.88
2023-05-16T00:37:12.372Z,101375.72
2023-05-16T00:42:14.726Z,101369.94
2023-05-16T00:47:17.148Z,101361.78
2023-05-16T00:52:19.512Z,101370.06
2023-05-16T00:57:22.003Z,101363.97
2023-05-16T01:02:28.737Z,101366.22
2023-05-16T01:07:32.321Z,101371.63
2023-05-16T01:12:49.580Z,101365.53
2023-05-16T01:18:07.123Z,101375.41
2023-05-16T01:23:40.412Z,101373.94
2023-05-16T01:28:46.766Z,101369.78
2023-05-16T01:33:49.769Z,101377.69
2023-05-16T01:38:55.092Z,101384.59
2023-05-16T01:44:05.477Z,101384.69
2023-05-16T01:49:39.855Z,101388.41
2023-05-16T01:54:48.639Z,101389.94
2023-05-16T01:59:51.039Z,101395.72
2023-05-16T02:04:53.391Z,101398.56
2023-05-16T02:09:55.722Z,101399.75
2023-05-16T02:14:58.138Z,101401.09
2023-05-16T02:20:06.930Z,101406.97
2023-05-16T02:25:10.188Z,101414.00
2023-05-16T02:30:13.044Z,101412.25
2023-05-16T02:35:15.801Z,101424.25
2023-05-16T02:40:19.424Z,101420.78
2023-05-16T02:45:22.839Z,101428.03
2023-05-16T02:50:26.267Z,101433.97
2023-05-16T02:55:31.793Z,101430.00
2023-05-16T03:00:34.314Z,101435.25
2023-05-16T03:05:36.805Z,101431.34
2023-05-16T03:10:39.189Z,101430.78
2023-05-16T03:15:42.311Z,101437.69
2023-05-16T03:20:45.089Z,101440.69
2023-05-16T03:25:48.178Z,101435.69
2023-05-16T03:30:50.520Z,101432.28
2023-05-16T03:35:53.084Z,101439.97
2023-05-16T03:40:55.872Z,101432.72
2023-05-16T03:45:58.234Z,101446.69
2023-05-16T03:51:00.551Z,101440.34
2023-05-16T03:56:02.856Z,101444.44
2023-05-16T04:01:05.166Z,101446.59
2023-05-16T04:06:08.588Z,101449.75
2023-05-16T04:11:11.225Z,101453.09
2023-05-16T04:16:13.702Z,101451.72
2023-05-16T04:21:16.190Z,101448.47
2023-05-16T04:26:18.604Z,101441.91
2023-05-16T04:31:22.299Z,101440.69
2023-05-16T04:36:24.607Z,101447.63
2023-05-16T04:41:27.040Z,101446.44
2023-05-16T04:46:29.500Z,101448.75
2023-05-16T04:51:34.155Z,101450.28
2023-05-16T04:56:38.224Z,101447.28
2023-05-16T05:01:41.062Z,101449.66
2023-05-16T05:06:43.921Z,101441.09
2023-05-16T05:11:46.722Z,101432.28
2023-05-16T05:16:49.048Z,101430.53
2023-05-16T05:21:51.429Z,101432.19
2023-05-16T05:26:53.893Z,101429.34
2023-05-16T05:31:56.383Z,101426.13
2023-05-16T05:36:59.085Z,101433.75
2023-05-16T05:42:03.860Z,101437.41
2023-05-16T05:47:07.313Z,101439.06
2023-05-16T05:52:09.771Z,101437.13
2023-05-16T05:57:12.289Z,101438.44
2023-05-16T06:02:14.970Z,101444.03
2023-05-16T06:07:18.558Z,101443.81
2023-05-16T06:12:20.873Z,101428.38
2023-05-16T06:17:23.397Z,101444.94
2023-05-16T06:22:26.009Z,101442.84
2023-05-16T06:27:28.492Z,101440.03
2023-05-16T06:32:31.160Z,101439.69
2023-05-16T06:37:33.394Z,101434.66
2023-05-16T06:42:35.888Z,101440.25
2023-05-16T06:47:38.445Z,101439.69
2023-05-16T06:52:41.030Z,101442.97
2023-05-16T06:57:43.500Z,101438.66
2023-05-16T07:02:48.870Z,101443.44
2023-05-16T07:07:51.319Z,101428.31
2023-05-16T07:12:53.912Z,101427.91
2023-05-16T07:17:56.405Z,101420.56
2023-05-16T07:22:59.760Z,101409.72
2023-05-16T07:28:02.390Z,101411.97
2023-05-16T07:33:05.275Z,101415.50
2023-05-16T07:38:07.577Z,101407.50
2023-05-16T07:43:09.952Z,101397.72
2023-05-16T07:48:12.442Z,101404.13
2023-05-16T07:53:14.974Z,101396.13
2023-05-16T07:58:17.467Z,101382.56
2023-05-16T08:03:20.142Z,101379.81
2023-05-16T08:08:22.549Z,101387.44
2023-05-16T08:13:25.008Z,101387.56
2023-05-16T08:18:27.645Z,101378.63
2023-05-16T08:23:30.170Z,101371.78
2023-05-16T08:28:32.780Z,101380.41
2023-05-16T08:33:35.077Z,101366.19
2023-05-16T08:38:37.501Z,101361.84
2023-05-16T08:43:40.116Z,101367.63
2023-05-16T08:48:44.181Z,101369.31
2023-05-16T08:53:54.674Z,101367.75
2023-05-16T08:58:58.383Z,101365.44
2023-05-16T09:04:01.632Z,101354.03
2023-05-16T09:09:08.024Z,101351.41
2023-05-16T09:14:10.638Z,101335.53
2023-05-16T09:19:14.545Z,101341.03
2023-05-16T09:24:17.312Z,101331.63
2023-05-16T09:29:20.404Z,101328.56
2023-05-16T09:34:23.163Z,101336.03
2023-05-16T09:39:27.838Z,101325.41
2023-05-16T09:44:31.935Z,101332.34
2023-05-16T09:49:37.675Z,101336.41
2023-05-16T09:54:41.387Z,101328.31
2023-05-16T09:59:46.083Z,101307.59
2023-05-16T10:04:48.564Z,101306.41
2023-05-16T10:09:53.162Z,101304.75
2023-05-16T10:14:56.887Z,101294.50
2023-05-16T10:20:05.980Z,101306.66
2023-05-16T10:25:34.654Z,101307.41
2023-05-16T10:30:40.885Z,101302.69
2023-05-16T10:35:44.689Z,101285.00
2023-05-16T10:40:48.294Z,101299.78
2023-05-16T10:45:58.829Z,101293.56
2023-05-16T10:51:03.539Z,101291.38
2023-05-16T10:56:09.356Z,101287.81
2023-05-16T11:01:22.711Z,101287.06
2023-05-16T11:06:30.117Z,101281.63
2023-05-16T11:11:55.752Z,101282.84
2023-05-16T11:17:03.827Z,101274.66
2023-05-16T11:22:19.589Z,101273.66
2023-05-16T11:27:52.549Z,101265.00
2023-05-16T11:32:56.192Z,101272.38
2023-05-16T11:37:58.887Z,101268.03
2023-05-16T11:43:07.104Z,101252.63
2023-05-16T11:48:10.177Z,101250.63
2023-05-16T11:53:14.817Z,101248.19
2023-05-16T11:58:18.012Z,101245.31
2023-05-16T12:03:21.478Z,101237.94
2023-05-16T12:08:25.496Z,101246.06
2023-05-16T12:13:28.481Z,101249.13
2023-05-16T12:18:31.095Z,101247.09
2023-05-16T12:23:34.512Z,101240.22
2023-05-16T12:28:39.455Z,101261.63
2023-05-16T12:33:41.947Z,101267.41
2023-05-16T12:38:47.709Z,101277.84
2023-05-16T12:43:50.735Z,101280.50
2023-05-16T12:49:05.432Z,101306.22
2023-05-16T12:54:10.634Z,101331.47
2023-05-16T12:59:16.297Z,101345.50
2023-05-16T13:04:20.619Z,101335.34
2023-05-16T13:09:24.034Z,101336.53
2023-05-16T13:14:26.431Z,101330.34
2023-05-16T13:19:29.099Z,101339.66
2023-05-16T13:24:31.515Z,101355.06
2023-05-16T13:29:33.909Z,101362.88
2023-05-16T13:34:36.378Z,101355.78
2023-05-16T13:39:38.881Z,101359.03
2023-05-16T13:44:41.326Z,101346.00
2023-05-16T13:49:44.081Z,101344.81
2023-05-16T13:54:46.498Z,101350.25
2023-05-16T14:00:17.715Z,101360.56
2023-05-16T14:05:14.365Z,101370.19
2023-05-16T14:10:16.831Z,101349.25
2023-05-16T14:15:19.471Z,101329.75
2023-05-16T14:20:22.052Z,101347.09
2023-05-16T14:25:24.584Z,101331.75
2023-05-16T14:30:27.611Z,101343.91
2023-05-16T14:35:31.427Z,101339.00
2023-05-16T14:40:34.587Z,101347.81
2023-05-16T14:45:40.621Z,101334.44
2023-05-16T14:50:43.393Z,101320.94
2023-05-16T14:55:45.843Z,101329.53
2023-05-16T15:00:48.500Z,101333.16
2023-05-16T15:05:50.927Z,101319.59
2023-05-16T15:10:53.375Z,101323.16
2023-05-16T15:15:56.028Z,101332.69
2023-05-16T15:20:58.506Z,101327.16
2023-05-16T15:26:01.100Z,101321.72
2023-05-16T15:31:05.876Z,101318.09
2023-05-16T15:41:43.591Z,101324.91
2023-05-16T15:46:47.259Z,101337.72
2023-05-16T15:51:51.386Z,101329.63
2023-05-16T15:56:53.959Z,101339.38
2023-05-16T16:01:56.830Z,101329.72
2023-05-16T16:06:59.433Z,101330.19
2023-05-16T16:12:02.779Z,101329.59
2023-05-16T16:17:05.295Z,101329.97
2023-05-16T16:22:07.850Z,101332.66
2023-05-16T16:27:10.336Z,101336.38
2023-05-16T16:32:12.906Z,101343.44
2023-05-16T16:37:15.413Z,101350.81
2023-05-16T16:42:17.822Z,101350.81
2023-05-16T16:47:20.345Z,101367.94
2023-05-16T16:52:22.945Z,101354.53
2023-05-16T16:57:25.612Z,101365.69
2023-05-16T17:02:28.757Z,101377.47
2023-05-16T17:07:31.789Z,101376.50
2023-05-16T17:12:35.129Z,101378.94
2023-05-16T17:17:37.598Z,101386.13
2023-05-16T17:22:40.882Z,101384.50
2023-05-16T17:27:44.929Z,101394.94
2023-05-16T17:32:47.590Z,101385.66
2023-05-16T17:37:50.975Z,101393.09
2023-05-16T17:42:53.510Z,101392.63
2023-05-16T17:47:56.122Z,101395.44
2023-05-16T17:52:59.294Z,101400.25
2023-05-16T17:58:01.818Z,101390.25
2023-05-16T18:03:05.433Z,101396.75
2023-05-16T18:08:08.727Z,101385.78
2023-05-16T18:13:12.652Z,101399.56
2023-05-16T18:18:15.234Z,101406.50
2023-05-16T18:23:17.741Z,101408.34
2023-05-16T18:28:21.095Z,101412.34
2023-05-16T18:33:23.657Z,101414.34
2023-05-16T18:38:32.612Z,101414.34
2023-05-16T18:43:36.897Z,101417.50
2023-05-16T18:48:39.406Z,101412.56
2023-05-16T18:53:42.019Z,101410.91
2023-05-16T18:58:44.584Z,101410.78
2023-05-16T19:03:47.233Z,101410.00
2023-05-16T19:08:50.064Z,101407.13
2023-05-16T19:13:52.559Z,101398.59
2023-05-16T19:18:55.225Z,101405.16
2023-05-16T19:23:57.861Z,101412.41
2023-05-16T19:29:00.686Z,101404.72
2023-05-16T19:34:03.367Z,101398.78
2023-05-16T19:39:06.087Z,101382.75
2023-05-16T19:44:08.657Z,101398.47
2023-05-16T19:49:11.160Z,101406.31
2023-05-16T19:54:13.814Z,101400.19
2023-05-16T19:59:17.209Z,101380.97
2023-05-16T20:04:19.777Z,101390.03
2023-05-16T20:09:22.485Z,101382.16
2023-05-16T20:14:25.575Z,101375.88
2023-05-16T20:19:30.211Z,101382.09
2023-05-16T20:24:32.765Z,101368.91
2023-05-16T20:29:35.412Z,101361.25
2023-05-16T20:34:39.178Z,101373.44
2023-05-16T20:39:43.371Z,101375.69
2023-05-16T20:44:45.921Z,101382.81
2023-05-16T20:49:48.366Z,101384.50
2023-05-16T20:54:50.952Z,101390.94
2023-05-16T20:59:53.497Z,101385.63
2023-05-16T21:04:57.438Z,101365.50
2023-05-16T21:10:01.822Z,101363.03
2023-05-16T21:15:07.761Z,101350.03
2023-05-16T21:20:10.509Z,101348.50
2023-05-16T21:25:12.990Z,101334.53
2023-05-16T21:30:15.660Z,101337.78
2023-05-16T21:35:18.131Z,101334.69
2023-05-16T21:40:25.157Z,101328.25
2023-05-16T21:45:28.048Z,101330.44
2023-05-16T21:50:31.234Z,101318.06
2023-05-16T21:55:33.769Z,101317.06
2023-05-16T22:00:36.730Z,101322.38
2023-05-16T22:05:39.114Z,101314.53
2023-05-16T22:10:41.501Z,101317.63
2023-05-16T22:15:49.297Z,101305.69
2023-05-16T22:20:58.446Z,101305.00
2023-05-16T22:26:00.939Z,101309.75
2023-05-16T22:31:03.495Z,101309.75
2023-05-16T22:36:06.222Z,101314.47
2023-05-16T22:41:08.759Z,101302.75
2023-05-16T22:46:11.208Z,101323.75
2023-05-16T22:51:13.831Z,101311.34
2023-05-16T22:56:16.275Z,101312.31
2023-05-16T23:01:18.635Z,101314.81
2023-05-16T23:06:21.133Z,101312.97
2023-05-16T23:11:23.488Z,101320.66
2023-05-16T23:16:26.092Z,101325.44
2023-05-16T23:21:28.604Z,101326.81
2023-05-16T23:26:31.723Z,101330.69
2023-05-16T23:31:34.206Z,101334.50
2023-05-16T23:36:37.041Z,101341.50
2023-05-16T23:41:39.736Z,101346.53
2023-05-16T23:46:42.257Z,101330.69
2023-05-16T23:51:56.757Z,101338.13
2023-05-16T23:57:00.378Z,101344.38
